KOLU

Columbus Municipal Airport

Columbus, Nebraska, USA
METAR KOLU 100556Z AUTO 00000KT 10SM CLR M13/M14 A3032 RMK AO2 SLP293 T11281139 11056 21128 400171128 58002 FZRANO
Observed Flight Rules
Dec-10 @ 05:56 UTC (32 minutes ago) Visual Flight Rules
Visibility Clouds
10 miles
  • Clear skies
Temperatures Readings
Current -13°C / 9°F
Dewpoint -14°C / 7°F
Humidity 92%
Altimeter 30.32" Hg
Pressure 1029.3 hPa
Elevation 440
METAR KOLU 100556Z AUTO 00000KT 10SM CLR M13/M14 A3032 RMK AO2 SLP293 T11281139 11056 21128 400171128 58002 FZRANO
Observed Flight Rules
Dec-10 @ 05:56 UTC
(32 minutes ago)
VFR
Clouds
  • Clear skies
Temperature Dewpoint
-13°C / 9°F -14°C / 7°F
Humidity Altimeter Pressure
92% 30.32" Hg 1029.3 hPa